createdAt,value
2018-09-04T00:11:17.063Z,82.4
2018-09-04T00:26:38.240Z,83.7
2018-09-04T00:41:55.937Z,85.5
2018-09-04T00:57:13.450Z,86.3
2018-09-04T01:12:18.132Z,86.6
2018-09-04T01:27:47.874Z,86.6
2018-09-04T01:43:05.089Z,86.8
2018-09-04T01:58:22.201Z,87.3
2018-09-04T02:13:39.302Z,87.7
2018-09-04T02:28:47.892Z,87.8
2018-09-04T02:44:13.647Z,88.1
2018-09-04T02:59:32.833Z,88.2
2018-09-04T03:14:48.019Z,88.5
2018-09-04T03:30:04.606Z,89
2018-09-04T03:45:16.957Z,89.7
2018-09-04T04:00:37.488Z,90.8
2018-09-04T04:15:54.245Z,91.7
2018-09-04T04:31:11.241Z,91.8
2018-09-04T04:46:15.187Z,91.8
2018-09-04T05:01:44.293Z,91.3
2018-09-04T05:17:01.107Z,90.7
2018-09-04T05:32:17.846Z,89.9
2018-09-04T05:47:34.536Z,88.9
2018-09-04T06:02:46.304Z,89.2
2018-09-04T06:18:08.776Z,75.1
2018-09-04T06:33:25.954Z,67.1
2018-09-04T06:48:43.056Z,66.8
2018-09-04T07:03:58.577Z,65.2
2018-09-04T07:19:17.766Z,62.6
2018-09-04T07:34:35.565Z,60.5
2018-09-04T07:49:40.175Z,60
2018-09-04T08:05:11.592Z,58.4
2018-09-04T08:20:30.214Z,57.2
2018-09-04T08:35:48.909Z,56.9
2018-09-04T08:50:52.578Z,55.5
2018-09-04T09:06:27.557Z,55.5
2018-09-04T09:21:45.869Z,54.5
2018-09-04T09:37:06.263Z,53.3
2018-09-04T09:52:25.733Z,52.2
2018-09-04T10:07:40.214Z,50.9
2018-09-04T10:23:05.729Z,47.2
2018-09-04T10:38:27.262Z,45.1
2018-09-04T10:53:47.348Z,44.7
2018-09-04T11:08:55.024Z,43.8
2018-09-04T11:24:28.621Z,44
2018-09-04T11:39:50.413Z,43.2
2018-09-04T11:55:11.570Z,38.7
2018-09-04T12:10:33.945Z,37.5
2018-09-04T12:25:44.179Z,32.9
2018-09-04T12:41:18.692Z,32.3
2018-09-04T12:56:41.182Z,32.5
2018-09-04T13:12:02.902Z,33
2018-09-04T13:27:24.671Z,33.9
2018-09-04T13:42:34.460Z,29.8
2018-09-04T13:58:09.421Z,27
2018-09-04T14:13:35.511Z,24.9
2018-09-04T14:29:07.395Z,24.4
2018-09-04T14:44:23.989Z,23.2
2018-09-04T14:59:28.740Z,23.4
2018-09-04T15:15:03.327Z,22.4
2018-09-04T15:30:38.423Z,22.8
2018-09-04T15:46:03.471Z,23.1
2018-09-04T16:01:28.197Z,22.9
2018-09-04T16:16:51.091Z,24.1
2018-09-04T16:31:55.128Z,28.7
2018-09-04T16:47:29.482Z,30.4
2018-09-04T17:02:57.714Z,31.4
2018-09-04T17:18:19.744Z,31.9
2018-09-04T17:33:41.218Z,33.7
2018-09-04T17:49:02.347Z,35.2
2018-09-04T18:04:16.999Z,36.6
2018-09-04T18:19:43.561Z,38
2018-09-04T18:35:05.074Z,39.8
2018-09-04T18:50:23.776Z,41.5
2018-09-04T19:05:43.983Z,43.1
2018-09-04T19:20:58.678Z,45.2
2018-09-04T19:36:23.927Z,48.5
2018-09-04T19:51:41.432Z,50.2
2018-09-04T20:07:00.615Z,52.5
2018-09-04T20:22:04.746Z,54.6
2018-09-04T20:37:36.221Z,55.2
2018-09-04T20:52:56.843Z,56.9
2018-09-04T21:08:15.437Z,58.4
2018-09-04T21:23:34.055Z,57.2
2018-09-04T21:38:41.336Z,56.9
2018-09-04T21:54:11.038Z,57.3
2018-09-04T22:09:29.448Z,60.1
2018-09-04T22:24:47.480Z,62.5
2018-09-04T22:40:05.903Z,63.1
2018-09-04T22:55:17.228Z,64.2
2018-09-04T23:10:41.793Z,66.1
2018-09-04T23:25:59.894Z,67.9
2018-09-04T23:41:17.722Z,69.8
2018-09-04T23:56:35.952Z,70.9
